KNRB/NRB METAR and TAF weather

Enter ICAO airport designator
Station Type Date Time Source
KNRB METAR 2021/09/25 10:52 UTC NOAA

KNRB 251052Z AUTO 04009KT 10SM BKN065 24/17 A3003 RMK AO2 SLP167 T02390172


Station Type Date Time Source
KNRB Decoded METAR 2021/09/25 10:52 UTC NOAA

MAYPORT NAVAL AIR FACILITY, FL, United States (KNRB) 30-24N 81-25W 4M
Sep 25, 2021 - 06:52 AM EDT / 2021.09.25 1052 UTC
Wind: from the NE (040 degrees) at 10 MPH (9 KT):0
Visibility: 10 mile(s):0
Sky conditions: mostly cloudy
Temperature: 75.0 F (23.9 C)
Dew Point: 63.0 F (17.2 C)
Relative Humidity: 66%
Pressure (altimeter): 30.03 in. Hg (1016 hPa)
ob: KNRB 251052Z AUTO 04009KT 10SM BKN065 24/17 A3003 RMK AO2 SLP167 T02390172
cycle: 11

Station Type Date Time Source
KNRB TAF 2021/09/24 18:39 UTC NOAA

TAF
AMD KNRB 2418/2515 04012KT 9999 FEW040 QNH2998INS
FM250200 02006KT 9999 SKC QNH3000INS LAST NO AMENDS AFT 2422 NEXT 2707 AUTOMATED SENSOR METWATCH 2422 TIL 2711 T28/2419Z T20/2511Z
AMD 1820 FN20021

Example: see airport list